Time;durP1;ratioP1;P1;durP2;ratioP2;P2;SDS_P1;SDS_P2;PMS_P1;PMS_P2;Temp;Humidity;BMP_temperature;BMP_pressure;BME280_temperature;BME280_humidity;BME280_pressure;Samples;Min_cycle;Max_cycle;Signal;HPM_P1;HPM_P2
2023/01/15 00:01:01;;;;;;;8.13;1.47;;;7.70;99.90;;;;;;5069996;28;20500;-70
2023/01/15 00:03:27;;;;;;;13.10;2.13;;;7.80;99.90;;;;;;5073759;28;20125;-70
2023/01/15 00:05:52;;;;;;;10.97;1.43;;;7.70;99.90;;;;;;5078241;28;20020;-70
2023/01/15 00:08:18;;;;;;;11.47;1.00;;;7.80;99.90;;;;;;5087599;28;20016;-70
2023/01/15 00:10:44;;;;;;;5.63;1.70;;;7.80;99.90;;;;;;5078047;28;20043;-70
2023/01/15 00:13:10;;;;;;;7.03;1.23;;;;;;;;;;5073092;28;20012;-70
2023/01/15 00:15:36;;;;;;;8.83;0.90;;;;;;;;;;5077900;28;20024;-70
2023/01/15 00:18:02;;;;;;;11.43;1.13;;;;;;;;;;5087416;28;20566;-70
2023/01/15 00:20:28;;;;;;;6.83;0.97;;;7.70;99.90;;;;;;5077066;28;20481;-70
2023/01/15 00:22:53;;;;;;;9.17;2.23;;;7.70;99.90;;;;;;5069446;28;20048;-70
2023/01/15 00:28:04;;;;;;;10.57;1.13;;;7.60;99.90;;;;;;5075781;28;20081;-70
2023/01/15 00:30:30;;;;;;;6.00;1.10;;;;;;;;;;5088397;28;20428;-70
2023/01/15 00:32:58;;;;;;;8.40;2.17;;;7.60;99.90;;;;;;5081547;28;20066;-70
2023/01/15 00:35:24;;;;;;;5.23;0.80;;;;;;;;;;5089564;28;20036;-70
2023/01/15 00:37:50;;;;;;;8.13;1.13;;;7.60;99.90;;;;;;5089018;28;20024;-70
2023/01/15 00:40:17;;;;;;;8.13;1.37;;;7.70;99.90;;;;;;5089033;28;20040;-70
2023/01/15 00:42:43;;;;;;;13.87;1.87;;;7.60;99.90;;;;;;5090047;28;20052;-69
2023/01/15 00:45:10;;;;;;;10.40;1.40;;;7.50;99.90;;;;;;5089017;28;20100;-70
2023/01/15 00:47:40;;;;;;;5.30;0.93;;;7.50;99.90;;;;;;5098191;28;20020;-70
2023/01/15 00:50:09;;;;;;;7.50;0.80;;;7.70;99.90;;;;;;5093142;28;20092;-70
2023/01/15 00:52:35;;;;;;;11.03;1.80;;;;;;;;;;5089220;28;20039;-70
2023/01/15 00:55:01;;;;;;;7.00;1.17;;;;;;;;;;5073501;28;20020;-70
2023/01/15 00:57:27;;;;;;;12.00;1.50;;;7.60;99.90;;;;;;5073081;28;20368;-70
2023/01/15 00:59:53;;;;;;;8.03;1.30;;;;;;;;;;5073693;28;20408;-70
2023/01/15 01:02:19;;;;;;;16.43;1.90;;;7.60;99.90;;;;;;5073219;28;20024;-70
2023/01/15 01:04:45;;;;;;;10.90;1.77;;;;;;;;;;5086806;28;20032;-70
2023/01/15 01:07:11;;;;;;;15.23;1.77;;;7.50;99.90;;;;;;5072821;28;20021;-70
2023/01/15 01:09:37;;;;;;;4.13;1.00;;;;;;;;;;5073607;28;20037;-67
2023/01/15 01:12:02;;;;;;;8.53;1.40;;;7.60;99.90;;;;;;5082495;28;20509;-67
2023/01/15 01:14:28;;;;;;;8.60;1.20;;;;;;;;;;5079595;28;20714;-68
2023/01/15 01:16:54;;;;;;;6.83;1.70;;;7.70;99.90;;;;;;5093148;28;20073;-68
2023/01/15 01:19:21;;;;;;;7.10;1.97;;;7.40;99.90;;;;;;5092382;28;20039;-68
2023/01/15 01:21:48;;;;;;;14.93;1.90;;;7.70;99.90;;;;;;5087740;28;20037;-68
2023/01/15 01:24:16;;;;;;;15.00;1.67;;;7.50;99.90;;;;;;5074790;28;20082;-69
2023/01/15 01:26:44;;;;;;;10.93;1.60;;;;;;;;;;5074220;28;20515;-68
2023/01/15 01:29:11;;;;;;;12.83;2.30;;;7.50;99.90;;;;;;5074167;28;20024;-68
2023/01/15 01:31:37;;;;;;;13.57;3.23;;;;;;;;;;5073684;28;20013;-68
2023/01/15 01:34:03;;;;;;;10.83;1.60;;;7.40;99.90;;;;;;5073984;28;20013;-69
2023/01/15 01:36:34;;;;;;;9.77;1.47;;;7.50;99.90;;;;;;5072772;28;20531;-68
2023/01/15 01:39:01;;;;;;;11.63;2.10;;;7.60;99.90;;;;;;5074595;28;20024;-68
2023/01/15 01:41:27;;;;;;;7.70;1.33;;;5.90;99.90;;;;;;5084597;28;20393;-68
2023/01/15 01:44:00;;;;;;;5.70;1.10;;;7.40;99.90;;;;;;5091336;28;20431;-69
2023/01/15 01:46:27;;;;;;;11.47;1.37;;;7.40;99.90;;;;;;5091921;28;20123;-69
2023/01/15 01:48:58;;;;;;;7.87;1.77;;;7.40;99.90;;;;;;5090842;28;20158;-69
2023/01/15 01:51:27;;;;;;;13.60;1.30;;;7.30;99.90;;;;;;5089304;28;20112;-69
2023/01/15 01:53:54;;;;;;;11.03;1.23;;;7.30;99.90;;;;;;5089399;28;20028;-69
2023/01/15 01:56:20;;;;;;;12.03;2.93;;;;;;;;;;5090405;28;20099;-68
2023/01/15 01:58:50;;;;;;;8.20;0.93;;;7.20;99.90;;;;;;5092562;28;20161;-70
2023/01/15 02:01:16;;;;;;;9.57;1.50;;;7.30;99.90;;;;;;5090216;28;20024;-68
2023/01/15 02:03:42;;;;;;;11.43;1.53;;;;;;;;;;5091609;28;20024;-69
2023/01/15 02:06:10;;;;;;;14.63;2.03;;;7.20;99.90;;;;;;5087235;28;20039;-69
2023/01/15 02:08:38;;;;;;;9.23;1.70;;;7.20;99.90;;;;;;5090413;28;20016;-69
2023/01/15 02:11:06;;;;;;;7.30;1.23;;;8.00;99.90;;;;;;5076412;28;20094;-69
2023/01/15 02:13:37;;;;;;;9.90;1.27;;;7.20;99.90;;;;;;5072178;28;20424;-69
2023/01/15 02:16:18;;;;;;;6.73;1.33;;;7.20;99.90;;;;;;5072231;28;20021;-69
2023/01/15 02:18:58;;;;;;;8.60;1.10;;;7.10;99.90;;;;;;5072151;28;20050;-69
2023/01/15 02:22:00;;;;;;;9.13;1.23;;;7.20;99.90;;;;;;5071908;28;20020;-69
2023/01/15 02:24:43;;;;;;;11.13;1.70;;;7.20;99.90;;;;;;5072178;28;20477;-69
2023/01/15 02:27:19;;;;;;;7.37;1.47;;;7.40;99.90;;;;;;5077411;28;20024;-69
2023/01/15 02:30:03;;;;;;;8.37;1.10;;;7.00;99.90;;;;;;5080068;28;20028;-69
2023/01/15 02:32:42;;;;;;;8.65;1.20;;;7.00;99.90;;;;;;5075921;28;20025;-69
2023/01/15 02:35:20;;;;;;;6.30;1.23;;;7.10;99.90;;;;;;5070999;28;20393;-69
2023/01/15 02:37:52;;;;;;;11.97;1.23;;;7.00;99.90;;;;;;5079314;28;20488;-69
2023/01/15 02:40:20;;;;;;;7.90;1.33;;;7.00;99.90;;;;;;5091055;28;20069;-69
2023/01/15 02:42:47;;;;;;;8.80;1.83;;;6.90;99.90;;;;;;5082995;28;20040;-69
2023/01/15 02:45:18;;;;;;;13.40;1.20;;;6.90;99.90;;;;;;5073580;28;20477;-69
2023/01/15 02:47:45;;;;;;;12.30;1.37;;;6.90;99.90;;;;;;5082188;28;20457;-68
2023/01/15 02:50:13;;;;;;;9.53;1.53;;;6.90;99.90;;;;;;5070783;28;20075;-69
2023/01/15 02:52:44;;;;;;;14.57;1.23;;;6.80;99.90;;;;;;5072089;28;20032;-69
2023/01/15 02:55:16;;;;;;;7.93;1.90;;;6.80;99.90;;;;;;5071683;28;20020;-69
2023/01/15 02:57:44;;;;;;;3.90;1.20;;;6.80;99.90;;;;;;5071562;28;20501;-69
2023/01/15 03:00:13;;;;;;;8.03;1.33;;;6.90;99.90;;;;;;5070944;28;20115;-69
2023/01/15 03:02:46;;;;;;;6.67;0.73;;;6.90;99.90;;;;;;5071179;28;20107;-69
2023/01/15 03:05:21;;;;;;;14.43;1.53;;;6.90;99.90;;;;;;5070925;28;20362;-69
2023/01/15 03:08:07;;;;;;;7.30;2.10;;;6.90;99.90;;;;;;5071182;28;20464;-69
2023/01/15 03:11:04;;;;;;;7.83;1.53;;;6.80;99.90;;;;;;5071135;28;20032;-68
2023/01/15 03:13:54;;;;;;;7.57;1.27;;;6.90;99.90;;;;;;5078573;28;20048;-69
2023/01/15 03:16:35;;;;;;;8.53;1.93;;;6.80;99.90;;;;;;5085899;28;20047;-69
2023/01/15 03:19:26;;;;;;;10.07;1.10;;;6.80;99.90;;;;;;5070292;28;20095;-69
2023/01/15 03:22:11;;;;;;;15.67;2.43;;;6.80;99.90;;;;;;5080379;28;20094;-69
2023/01/15 03:24:45;;;;;;;12.03;2.17;;;6.70;99.90;;;;;;5090162;28;20027;-69
2023/01/15 03:27:11;;;;;;;15.90;2.20;;;;;;;;;;5088918;28;20055;-69
2023/01/15 03:29:40;;;;;;;7.63;1.17;;;6.60;99.90;;;;;;5090117;28;20024;-69
2023/01/15 03:32:06;;;;;;;9.23;1.73;;;;;;;;;;5088376;28;20024;-69
2023/01/15 03:34:59;;;;;;;9.80;1.73;;;6.70;99.90;;;;;;5090041;28;20023;-69
2023/01/15 03:37:26;;;;;;;8.10;1.63;;;6.70;99.90;;;;;;5085831;28;20046;-69
2023/01/15 03:39:53;;;;;;;3.17;0.73;;;6.70;99.90;;;;;;5090201;28;20024;-69
2023/01/15 03:42:25;;;;;;;8.57;1.13;;;6.70;99.90;;;;;;5089056;28;20069;-69
2023/01/15 03:45:22;;;;;;;10.10;1.20;;;6.60;99.90;;;;;;5090090;28;20024;-69
2023/01/15 03:48:23;;;;;;;9.27;1.10;;;6.70;99.90;;;;;;5078649;28;20043;-69
2023/01/15 03:50:55;;;;;;;21.37;1.93;;;6.70;99.90;;;;;;5075401;28;20122;-69
2023/01/15 03:53:28;;;;;;;6.13;1.17;;;6.70;99.90;;;;;;5089656;28;20032;-68
2023/01/15 03:56:25;;;;;;;10.55;1.10;;;6.80;99.90;;;;;;5080038;28;20043;-69
2023/01/15 03:58:56;;;;;;;9.57;1.00;;;6.60;99.90;;;;;;5070234;28;20158;-68
2023/01/15 04:01:27;;;;;;;8.20;1.77;;;6.60;99.90;;;;;;5069483;28;20013;-68
2023/01/15 04:03:54;;;;;;;6.40;1.60;;;6.50;99.90;;;;;;5070479;28;20056;-68
2023/01/15 04:06:21;;;;;;;11.07;1.10;;;6.50;99.90;;;;;;5069679;28;20020;-69
2023/01/15 04:08:47;;;;;;;5.43;0.70;;;;;;;;;;5070987;28;20021;-68
2023/01/15 04:11:25;;;;;;;8.07;1.10;;;6.60;99.90;;;;;;5070393;28;20032;-68
2023/01/15 04:13:51;;;;;;;5.50;0.77;;;6.60;99.90;;;;;;5079818;28;20024;-68
2023/01/15 04:16:25;;;;;;;5.03;0.87;;;6.50;99.90;;;;;;5087818;28;20034;-69
2023/01/15 04:18:51;;;;;;;4.87;1.57;;;6.50;99.90;;;;;;5088590;28;20054;-69
2023/01/15 04:21:17;;;;;;;10.07;1.17;;;;;;;;;;5086875;28;20354;-68
2023/01/15 04:23:43;;;;;;;12.00;1.50;;;;;;;;;;5079186;28;20043;-68
2023/01/15 04:26:09;;;;;;;12.17;1.17;;;;;;;;;;5088169;28;20032;-68
2023/01/15 04:28:35;;;;;;;7.77;1.30;;;6.30;99.90;;;;;;5089816;28;20056;-69
2023/01/15 04:31:00;;;;;;;12.97;1.70;;;6.40;99.90;;;;;;5089496;28;20112;-68
2023/01/15 04:33:26;;;;;;;9.77;1.13;;;6.30;99.90;;;;;;5093541;28;20117;-69
2023/01/15 04:35:52;;;;;;;10.63;2.60;;;;;;;;;;5091584;28;20048;-69
2023/01/15 04:38:17;;;;;;;9.07;1.90;;;6.50;99.90;;;;;;5093284;28;20058;-69
2023/01/15 04:46:11;;;;;;;9.77;1.63;;;6.30;99.90;;;;;;5092922;28;19915;-68
2023/01/15 04:48:38;;;;;;;11.20;1.10;;;6.40;99.90;;;;;;5092385;28;20016;-69
2023/01/15 04:51:05;;;;;;;11.73;2.00;;;6.40;99.90;;;;;;5092984;28;20113;-68
2023/01/15 04:53:31;;;;;;;8.57;1.53;;;6.30;99.90;;;;;;5091592;28;20020;-69
2023/01/15 04:56:04;;;;;;;7.63;1.63;;;6.20;99.90;;;;;;5092133;28;20030;-68
2023/01/15 04:58:30;;;;;;;9.30;1.45;;;6.40;99.90;;;;;;5091852;28;20012;-69
2023/01/15 05:00:56;;;;;;;12.07;1.90;;;6.30;99.90;;;;;;5092896;28;20082;-68
2023/01/15 05:03:22;;;;;;;13.30;1.33;;;6.30;99.90;;;;;;5092898;28;20041;-69
2023/01/15 05:05:49;;;;;;;9.53;1.70;;;;;;;;;;5093040;28;20024;-69
2023/01/15 05:08:15;;;;;;;12.93;1.63;;;6.60;99.90;;;;;;5087756;28;20031;-69
2023/01/15 05:10:40;;;;;;;10.47;1.63;;;6.40;99.90;;;;;;5073421;28;20039;-69
2023/01/15 05:13:06;;;;;;;11.67;1.30;;;;;;;;;;5085956;28;20131;-69
2023/01/15 05:15:32;;;;;;;12.30;1.17;;;;;;;;;;5084623;28;20024;-69
2023/01/15 05:17:58;;;;;;;12.63;1.67;;;;;;;;;;5092966;28;20031;-69
2023/01/15 05:20:24;;;;;;;9.37;1.63;;;;;;;;;;5092247;28;20032;-69
2023/01/15 05:22:50;;;;;;;9.63;1.50;;;;;;;;;;5088991;28;20032;-68
2023/01/15 05:25:16;;;;;;;13.53;1.60;;;6.40;99.90;;;;;;5084537;28;20039;-69
2023/01/15 05:27:42;;;;;;;9.80;2.33;;;;;;;;;;5087660;28;20104;-70
2023/01/15 05:30:08;;;;;;;9.90;1.63;;;;;;;;;;5072959;28;20032;-69
2023/01/15 05:32:34;;;;;;;10.83;2.07;;;;;;;;;;5073118;28;20020;-69
2023/01/15 05:34:59;;;;;;;12.03;1.20;;;6.20;99.90;;;;;;5072849;28;20028;-69
2023/01/15 05:37:25;;;;;;;6.87;1.13;;;;;;;;;;5091209;28;20072;-68
2023/01/15 05:39:51;;;;;;;9.70;1.70;;;;;;;;;;5092941;28;20161;-69
2023/01/15 05:42:17;;;;;;;6.60;1.17;;;6.20;99.90;;;;;;5088158;28;20044;-69
2023/01/15 05:44:42;;;;;;;16.80;2.13;;;6.10;99.90;;;;;;5079612;28;20031;-68
2023/01/15 05:47:09;;;;;;;11.57;1.53;;;;;;;;;;5086317;28;20024;-69
2023/01/15 05:49:35;;;;;;;8.87;1.20;;;;;;;;;;5089883;28;20036;-69
2023/01/15 05:52:01;;;;;;;11.33;1.10;;;6.10;99.90;;;;;;5075105;28;20509;-69
2023/01/15 05:54:32;;;;;;;10.73;2.00;;;6.00;99.90;;;;;;5083573;28;20024;-69
2023/01/15 05:56:58;;;;;;;5.87;1.53;;;6.00;99.90;;;;;;5080445;28;20027;-69
2023/01/15 05:59:25;;;;;;;5.17;1.13;;;5.70;99.90;;;;;;5081204;28;20040;-69
2023/01/15 06:01:52;;;;;;;11.50;1.30;;;6.00;99.90;;;;;;5085425;28;20122;-69
2023/01/15 06:04:20;;;;;;;7.17;1.20;;;4.80;99.90;;;;;;5074603;28;20032;-69
2023/01/15 06:06:47;;;;;;;19.60;1.87;;;6.10;99.90;;;;;;5074530;28;20035;-69
2023/01/15 06:09:13;;;;;;;11.20;2.00;;;;;;;;;;5075803;28;20827;-70
2023/01/15 06:11:39;;;;;;;10.27;1.50;;;6.20;99.90;;;;;;5077896;28;20520;-69
2023/01/15 06:14:05;;;;;;;8.20;1.67;;;6.20;99.90;;;;;;5092004;28;20385;-69
2023/01/15 06:16:31;;;;;;;7.10;1.33;;;6.10;99.90;;;;;;5085600;28;20025;-69
2023/01/15 06:19:02;;;;;;;8.77;1.47;;;5.60;99.90;;;;;;5084780;28;20028;-69
2023/01/15 06:21:28;;;;;;;7.60;1.27;;;;;;;;;;5084361;28;20040;-69
2023/01/15 06:23:54;;;;;;;9.30;1.27;;;;;;;;;;5071886;28;20028;-69
2023/01/15 06:26:20;;;;;;;13.20;1.93;;;5.90;99.90;;;;;;5071741;28;20028;-69
2023/01/15 06:28:46;;;;;;;12.30;1.43;;;;;;;;;;5072233;28;20052;-69
2023/01/15 06:31:14;;;;;;;16.23;2.60;;;6.20;99.90;;;;;;5078622;28;20073;-68
2023/01/15 06:33:40;;;;;;;13.80;1.50;;;;;;;;;;5090903;28;20390;-69
2023/01/15 06:36:11;;;;;;;7.60;1.53;;;5.90;99.90;;;;;;5091279;28;20031;-69
2023/01/15 06:38:38;;;;;;;4.53;1.10;;;6.00;99.90;;;;;;5090483;28;20578;-69
2023/01/15 06:47:19;;;;;;;10.70;1.10;;;6.20;99.90;;;;;;5090157;28;20040;-69
2023/01/15 06:49:19;;;;;;;10.87;0.90;;;6.00;99.90;;;;;;5090293;28;20392;-69
2023/01/15 06:51:45;;;;;;;8.60;1.27;;;;;;;;;;5088788;28;20020;-69
2023/01/15 06:54:11;;;;;;;7.90;1.90;;;5.90;99.90;;;;;;5089195;28;20032;-69
2023/01/15 06:56:37;;;;;;;5.63;0.93;;;;;;;;;;5089369;28;20493;-69
2023/01/15 06:59:02;;;;;;;9.77;1.80;;;6.10;99.90;;;;;;5088845;28;20034;-69
2023/01/15 07:01:29;;;;;;;12.17;2.00;;;6.20;99.90;;;;;;5089215;28;20381;-69
2023/01/15 07:03:55;;;;;;;5.10;1.30;;;6.10;99.90;;;;;;5090167;28;20365;-69
2023/01/15 07:06:21;;;;;;;7.63;0.83;;;;;;;;;;5088892;28;20446;-70
2023/01/15 07:08:47;;;;;;;5.43;1.20;;;6.20;99.90;;;;;;5089814;28;20055;-70
2023/01/15 07:11:13;;;;;;;15.47;1.73;;;;;;;;;;5073867;28;20063;-70
2023/01/15 07:13:39;;;;;;;5.80;1.50;;;;;;;;;;5070983;28;20024;-70
2023/01/15 07:16:25;;;;;;;11.33;1.10;;;;;;;;;;5071121;28;20530;-70
2023/01/15 07:18:51;;;;;;;9.80;1.80;;;5.60;99.90;;;;;;5071267;28;20025;-70
2023/01/15 07:21:16;;;;;;;11.87;1.23;;;5.70;99.90;;;;;;5071386;28;20044;-70
2023/01/15 07:23:42;;;;;;;9.97;1.47;;;5.60;99.90;;;;;;5073948;28;20029;-70
2023/01/15 07:26:08;;;;;;;11.90;1.40;;;5.60;99.90;;;;;;5071040;28;20396;-70
2023/01/15 07:28:34;;;;;;;8.97;0.60;;;5.70;99.90;;;;;;5070756;28;20037;-70
2023/01/15 07:30:59;;;;;;;13.27;1.37;;;;;;;;;;5070818;28;20036;-70
2023/01/15 07:33:25;;;;;;;6.20;1.30;;;;;;;;;;5070546;28;20485;-70
2023/01/15 07:35:51;;;;;;;6.70;3.17;;;5.80;99.90;;;;;;5070617;28;20420;-69
2023/01/15 07:38:16;;;;;;;9.10;0.90;;;5.50;99.90;;;;;;5069781;28;20047;-69
2023/01/15 07:40:42;;;;;;;3.57;1.03;;;5.40;99.90;;;;;;5070819;28;20493;-70
2023/01/15 07:51:22;;;;;;;10.67;1.10;;;5.20;99.90;;;;;;5082213;28;20047;-69
2023/01/15 07:53:48;;;;;;;13.63;2.10;;;;;;;;;;5070942;28;20474;-69
2023/01/15 07:56:14;;;;;;;11.73;1.10;;;5.30;99.90;;;;;;5070061;28;20032;-69
2023/01/15 07:58:39;;;;;;;10.30;1.40;;;5.20;99.90;;;;;;5070364;28;20035;-69
2023/01/15 08:01:05;;;;;;;8.30;1.60;;;5.30;99.90;;;;;;5069853;28;20024;-69
2023/01/15 08:03:31;;;;;;;7.43;1.40;;;;;;;;;;5070116;28;20112;-70
2023/01/15 08:05:57;;;;;;;10.40;1.83;;;;;;;;;;5070150;28;20016;-69
2023/01/15 08:08:22;;;;;;;7.27;1.40;;;5.40;99.90;;;;;;5069999;28;20119;-69
2023/01/15 08:16:17;;;;;;;10.43;1.03;;;5.20;99.90;;;;;;5085319;28;20043;-69
2023/01/15 08:18:44;;;;;;;20.70;2.33;;;5.60;99.90;;;;;;5080930;28;20029;-69
2023/01/15 08:21:14;;;;;;;9.03;1.37;;;5.30;99.90;;;;;;5088549;28;20020;-69
2023/01/15 08:23:42;;;;;;;13.67;1.37;;;5.40;99.90;;;;;;5089578;28;20358;-69
2023/01/15 08:26:08;;;;;;;8.90;1.10;;;;;;;;;;5089567;28;20024;-69
2023/01/15 08:28:33;;;;;;;5.77;1.03;;;5.30;99.90;;;;;;5089661;28;20034;-69
2023/01/15 08:30:59;;;;;;;6.60;1.00;;;;;;;;;;5083751;28;20028;-69
2023/01/15 08:33:25;;;;;;;9.03;1.17;;;5.30;99.90;;;;;;5069393;28;20025;-68
2023/01/15 08:35:51;;;;;;;10.70;0.87;;;;;;;;;;5069754;28;20064;-68
2023/01/15 08:38:17;;;;;;;12.27;2.30;;;;;;;;;;5069739;28;20139;-70
2023/01/15 08:40:58;;;;;;;11.07;1.33;;;;;;;;;;5069304;28;20388;-70
2023/01/15 08:43:25;;;;;;;13.33;1.47;;;5.40;99.90;;;;;;5070802;28;20063;-70
2023/01/15 08:45:51;;;;;;;7.73;1.13;;;5.40;99.90;;;;;;5070576;28;20024;-69
2023/01/15 08:48:18;;;;;;;8.13;1.63;;;;;;;;;;5070029;28;20028;-70
2023/01/15 08:50:43;;;;;;;12.83;2.10;;;;;;;;;;5070487;28;20125;-69
2023/01/15 08:53:09;;;;;;;11.33;2.20;;;5.60;99.90;;;;;;5081558;28;20526;-70
2023/01/15 08:55:36;;;;;;;13.20;1.20;;;5.50;99.90;;;;;;5070165;28;20374;-70
2023/01/15 08:58:01;;;;;;;8.20;0.83;;;5.60;99.90;;;;;;5068199;28;20029;-70
2023/01/15 09:00:27;;;;;;;8.67;1.00;;;5.50;99.90;;;;;;5069675;28;20027;-70
2023/01/15 09:02:52;;;;;;;9.33;0.90;;;5.60;99.90;;;;;;5084471;28;20028;-70
2023/01/15 09:05:18;;;;;;;10.97;1.20;;;;;;;;;;5088989;28;20031;-69
2023/01/15 09:07:44;;;;;;;6.17;1.80;;;5.90;99.90;;;;;;5086491;28;20036;-70
2023/01/15 09:10:10;;;;;;;7.60;1.10;;;5.90;99.90;;;;;;5074957;28;20070;-70
2023/01/15 09:12:36;;;;;;;11.07;1.60;;;;;;;;;;5086807;28;20028;-70
2023/01/15 09:15:02;;;;;;;6.73;1.40;;;;;;;;;;5088544;28;20025;-70
2023/01/15 09:17:27;;;;;;;7.00;1.40;;;7.70;99.90;;;;;;5089703;28;20017;-69
2023/01/15 09:19:53;;;;;;;6.70;1.30;;;5.90;99.90;;;;;;5091314;28;20047;-70
2023/01/15 09:22:19;;;;;;;7.13;1.50;;;;;;;;;;5092392;28;20035;-70
2023/01/15 09:24:46;;;;;;;6.30;1.10;;;5.80;99.90;;;;;;5088435;28;20483;-70
2023/01/15 09:27:11;;;;;;;5.73;1.33;;;6.10;99.90;;;;;;5092498;28;20099;-68
2023/01/15 09:29:37;;;;;;;4.27;1.30;;;;;;;;;;5093052;28;20020;-68
2023/01/15 09:32:03;;;;;;;6.10;0.87;;;6.00;99.90;;;;;;5091314;28;20032;-68
2023/01/15 09:34:28;;;;;;;9.57;1.30;;;6.20;99.90;;;;;;5078896;28;20022;-68
2023/01/15 09:36:54;;;;;;;6.10;1.03;;;6.00;99.90;;;;;;5091432;28;20126;-68
2023/01/15 09:39:19;;;;;;;5.73;1.60;;;6.10;99.90;;;;;;5090527;28;20070;-68
2023/01/15 09:42:30;;;;;;;7.60;1.30;;;6.20;99.90;;;;;;5091514;28;20072;-68
2023/01/15 09:45:21;;;;;;;4.63;0.90;;;4.70;99.90;;;;;;5070142;28;20094;-68
2023/01/15 09:48:06;;;;;;;10.13;1.50;;;6.20;99.90;;;;;;5082403;28;20376;-68
2023/01/15 09:50:57;;;;;;;7.73;1.40;;;6.10;99.90;;;;;;5090459;28;20020;-68
2023/01/15 09:53:34;;;;;;;8.03;1.83;;;6.20;99.90;;;;;;5080199;28;20032;-68
2023/01/15 09:56:01;;;;;;;10.53;1.10;;;6.30;99.90;;;;;;5091894;28;20049;-68
2023/01/15 09:58:37;;;;;;;6.90;1.33;;;6.50;99.90;;;;;;5091223;28;20452;-68
2023/01/15 10:01:03;;;;;;;7.80;1.03;;;6.50;99.90;;;;;;5092110;28;20020;-68
2023/01/15 10:03:48;;;;;;;11.93;1.73;;;6.60;99.90;;;;;;5093198;28;20475;-68
2023/01/15 10:06:25;;;;;;;10.43;2.17;;;6.70;99.90;;;;;;5096741;28;20016;-69
2023/01/15 10:09:10;;;;;;;8.43;1.10;;;6.70;99.90;;;;;;5087359;28;20016;-70
2023/01/15 10:14:42;;;;;;;8.03;0.93;;;6.80;99.90;;;;;;5090819;28;20027;-68
2023/01/15 10:17:19;;;;;;;6.53;1.30;;;7.00;99.90;;;;;;5091307;28;20365;-69
2023/01/15 10:19:45;;;;;;;12.33;1.30;;;6.70;99.90;;;;;;5091019;28;20024;-69
2023/01/15 10:22:41;;;;;;;6.13;1.30;;;6.80;99.90;;;;;;5090907;28;20031;-69
2023/01/15 10:25:15;;;;;;;6.27;1.50;;;6.80;99.90;;;;;;5083014;28;20111;-68
2023/01/15 10:27:44;;;;;;;;;;;6.80;99.90;;;;;;5085963;28;20359;-68
2023/01/15 10:30:18;;;;;;;8.80;1.43;;;6.80;99.90;;;;;;5083044;28;19957;-68
2023/01/15 10:32:53;;;;;;;12.80;2.13;;;6.80;99.90;;;;;;5075828;28;20033;-68
2023/01/15 10:35:19;;;;;;;8.40;1.17;;;;;;;;;;5088640;28;20020;-68
2023/01/15 10:38:22;;;;;;;6.77;1.80;;;6.90;99.90;;;;;;5076288;28;20025;-68
2023/01/15 10:40:48;;;;;;;9.30;1.17;;;;;;;;;;5075362;28;20082;-68
2023/01/15 10:43:27;;;;;;;13.07;1.83;;;7.40;99.90;;;;;;5079678;28;20039;-68
2023/01/15 10:46:00;;;;;;;7.13;1.13;;;7.20;99.90;;;;;;5076131;28;20046;-68
2023/01/15 10:48:40;;;;;;;15.37;1.47;;;7.40;99.90;;;;;;5075734;28;20473;-68
2023/01/15 10:51:23;;;;;;;7.30;1.07;;;7.50;99.90;;;;;;5077532;28;20115;-68
2023/01/15 10:53:59;;;;;;;;;;;7.50;99.90;;;;;;5085010;28;20075;-68
2023/01/15 10:56:33;;;;;;;11.80;1.25;;;7.60;99.90;;;;;;5079602;28;19908;-68
2023/01/15 10:59:16;;;;;;;9.55;1.85;;;7.50;99.90;;;;;;5080148;28;20103;-68
2023/01/15 11:01:41;;;;;;;11.90;1.43;;;7.60;99.90;;;;;;5075726;28;20020;-68
2023/01/15 11:04:12;;;;;;;9.03;1.57;;;7.60;99.90;;;;;;5078052;28;20047;-69
2023/01/15 11:06:38;;;;;;;6.80;0.90;;;;;;;;;;5076264;28;20103;-69
2023/01/15 11:09:05;;;;;;;12.37;2.73;;;;;;;;;;5077914;28;20100;-68
2023/01/15 11:20:45;;;;;;;15.47;1.47;;;8.00;99.90;;;;;;5081008;28;20030;-68
2023/01/15 11:23:14;;;;;;;8.50;2.50;;;7.80;99.90;;;;;;5070836;28;20025;-69
2023/01/15 11:25:58;;;;;;;8.37;1.10;;;7.70;99.90;;;;;;5084514;28;20027;-68
2023/01/15 11:28:54;;;;;;;8.23;1.00;;;7.90;99.90;;;;;;5071330;28;20081;-69
2023/01/15 11:31:19;;;;;;;11.13;3.17;;;7.70;99.90;;;;;;5057780;28;20392;-69
2023/01/15 11:34:01;;;;;;;7.80;1.80;;;7.60;99.90;;;;;;5071340;28;20028;-69
2023/01/15 11:36:28;;;;;;;6.93;1.20;;;7.60;99.90;;;;;;5071256;28;20039;-69
2023/01/15 11:38:54;;;;;;;13.27;1.87;;;8.00;99.90;;;;;;5072015;28;20091;-69
2023/01/15 11:52:25;;;;;;;5.70;1.20;;;7.70;99.90;;;;;;5071704;28;20397;-68
2023/01/15 11:54:53;;;;;;;7.13;1.17;;;7.60;99.90;;;;;;5073774;28;20032;-68
2023/01/15 11:57:29;;;;;;;14.30;1.73;;;7.50;99.90;;;;;;5071728;28;20361;-69
2023/01/15 11:59:55;;;;;;;4.27;1.17;;;7.40;99.90;;;;;;5080966;28;20043;-69
2023/01/15 12:02:39;;;;;;;10.53;1.47;;;7.40;99.90;;;;;;5082491;28;20453;-68
2023/01/15 12:05:06;;;;;;;9.00;1.37;;;7.20;99.90;;;;;;5085418;28;20031;-68
2023/01/15 12:07:32;;;;;;;4.03;1.30;;;;;;;;;;5071753;28;20020;-68
2023/01/15 12:11:02;;;;;;;8.87;1.33;;;7.50;99.90;;;;;;5076825;28;20161;-68
2023/01/15 12:13:09;;;;;;;7.13;1.20;;;7.60;99.90;;;;;;5089893;28;20099;-68
2023/01/15 12:15:35;;;;;;;6.33;1.17;;;;;;;;;;5089628;28;20060;-68
2023/01/15 12:18:19;;;;;;;7.77;0.90;;;7.80;99.90;;;;;;5071318;28;20041;-68
2023/01/15 12:21:15;;;;;;;5.70;0.88;;;7.80;99.90;;;;;;5084409;28;20086;-68
2023/01/15 12:23:46;;;;;;;7.50;1.77;;;7.80;99.90;;;;;;5090261;28;20028;-69
2023/01/15 12:26:16;;;;;;;7.23;1.10;;;7.90;99.90;;;;;;5089236;28;20098;-69
2023/01/15 12:29:16;;;;;;;5.93;1.10;;;8.20;99.90;;;;;;5089071;28;20040;-69
2023/01/15 12:32:03;;;;;;;10.57;1.50;;;8.20;99.90;;;;;;5086761;28;20067;-68
2023/01/15 12:34:49;;;;;;;7.00;1.20;;;7.90;99.90;;;;;;5083993;28;20020;-68
2023/01/15 12:37:35;;;;;;;8.10;1.00;;;7.90;99.90;;;;;;5104181;28;20392;-67
2023/01/15 12:40:13;;;;;;;11.37;1.83;;;7.70;99.90;;;;;;5090347;28;20012;-68
2023/01/15 12:45:30;;;;;;;10.90;1.63;;;7.30;99.90;;;;;;5088179;28;20067;-68
2023/01/15 12:48:17;;;;;;;4.10;0.90;;;7.00;99.90;;;;;;5082852;28;20036;-68
2023/01/15 12:50:49;;;;;;;7.83;1.17;;;6.70;99.90;;;;;;5090974;28;20167;-67
2023/01/15 12:53:23;;;;;;;7.00;1.37;;;7.00;99.90;;;;;;5090444;28;20124;-68
2023/01/15 12:56:00;;;;;;;3.72;0.73;;;7.20;99.90;;;;;;5089966;28;20024;-68
2023/01/15 12:58:35;;;;;;;4.00;0.77;;;7.20;99.90;;;;;;5091665;28;20032;-68
2023/01/15 13:01:12;;;;;;;2.40;0.80;;;7.20;99.90;;;;;;5090500;28;20527;-68
2023/01/15 13:03:55;;;;;;;5.10;0.97;;;7.20;99.90;;;;;;5089119;28;20024;-68
2023/01/15 13:06:25;;;;;;;6.10;0.90;;;7.40;99.90;;;;;;5088570;28;20467;-68
2023/01/15 13:08:58;;;;;;;6.00;1.23;;;7.40;99.90;;;;;;5087950;28;20107;-68
2023/01/15 13:11:24;;;;;;;3.73;0.90;;;;;;;;;;5088019;28;20028;-67
2023/01/15 13:13:56;;;;;;;6.97;1.67;;;;;;;;;;5073080;28;20504;-67
2023/01/15 13:16:47;;;;;;;11.03;1.37;;;7.60;99.90;;;;;;5091900;28;20479;-68
2023/01/15 13:19:13;;;;;;;6.20;0.87;;;;;;;;;;5096636;28;20027;-68
2023/01/15 13:21:40;;;;;;;3.33;1.00;;;7.50;99.90;;;;;;5093343;28;20024;-68
2023/01/15 13:24:41;;;;;;;4.03;0.93;;;7.50;99.90;;;;;;5092386;28;20019;-68
2023/01/15 13:27:07;;;;;;;6.03;0.90;;;;;;;;;;5096528;28;20016;-68
2023/01/15 13:30:14;;;;;;;4.00;1.17;;;7.70;99.90;;;;;;5092626;28;20032;-68
2023/01/15 13:32:51;;;;;;;5.40;2.03;;;7.50;99.90;;;;;;5089097;28;20024;-67
2023/01/15 13:35:34;;;;;;;8.37;1.33;;;7.60;99.90;;;;;;5087798;28;20095;-67
2023/01/15 13:38:04;;;;;;;9.93;1.60;;;7.60;99.90;;;;;;5090731;28;20020;-68
2023/01/15 13:40:34;;;;;;;5.40;1.13;;;7.50;99.90;;;;;;5087096;28;20099;-68
2023/01/15 13:43:00;;;;;;;5.63;0.97;;;;;;;;;;5095630;28;20039;-68
2023/01/15 13:45:42;;;;;;;5.33;1.17;;;7.60;99.90;;;;;;5102635;28;20464;-67
2023/01/15 13:48:18;;;;;;;7.83;1.70;;;7.60;99.90;;;;;;5084051;28;20601;-68
2023/01/15 13:50:58;;;;;;;10.43;1.50;;;7.50;99.90;;;;;;5097519;28;20035;-68
2023/01/15 13:53:47;;;;;;;8.20;1.30;;;7.60;99.90;;;;;;5085309;28;20020;-68
2023/01/15 13:56:23;;;;;;;4.73;1.20;;;7.50;99.90;;;;;;5091235;28;20048;-68
2023/01/15 13:58:56;;;;;;;7.90;1.43;;;7.40;99.90;;;;;;5083128;28;20032;-67
2023/01/15 14:01:25;;;;;;;4.17;1.10;;;7.40;99.90;;;;;;5094297;28;20020;-67
2023/01/15 14:03:58;;;;;;;8.43;1.40;;;7.30;99.90;;;;;;5081686;28;20032;-67
2023/01/15 14:06:42;;;;;;;4.57;1.20;;;7.20;99.90;;;;;;5087412;28;20043;-68
2023/01/15 14:09:28;;;;;;;7.87;1.50;;;6.90;99.90;;;;;;5079330;28;20088;-68
2023/01/15 14:11:57;;;;;;;7.53;1.70;;;6.90;99.90;;;;;;5080248;28;20029;-67
2023/01/15 14:14:46;;;;;;;6.97;1.80;;;6.50;99.90;;;;;;5087186;28;20425;-68
2023/01/15 14:17:49;;;;;;;6.07;1.80;;;6.80;99.90;;;;;;5079852;28;20100;-67
2023/01/15 14:20:37;;;;;;;2.57;0.97;;;6.80;99.90;;;;;;5071756;28;20039;-68
2023/01/15 14:23:33;;;;;;;6.57;1.40;;;6.90;99.90;;;;;;5070921;28;20037;-67
2023/01/15 14:26:08;;;;;;;5.97;1.50;;;6.80;99.90;;;;;;5071127;28;20048;-67
2023/01/15 14:29:04;;;;;;;7.60;1.27;;;7.00;99.90;;;;;;5092256;28;20027;-67
2023/01/15 14:31:30;;;;;;;6.17;1.87;;;;;;;;;;5079697;28;20128;-67